sensor_id;sensor_type;location;lat;lon;timestamp;pressure;altitude;pressure_sealevel;temperature;humidity
46722;BME280;32455;43.430;23.136;2023-05-27T00:02:11;98261.00;;;14.72;100.00
46722;BME280;32455;43.430;23.136;2023-05-27T00:04:56;98266.25;;;14.62;100.00
46722;BME280;32455;43.430;23.136;2023-05-27T00:07:41;98259.56;;;14.36;100.00
46722;BME280;32455;43.430;23.136;2023-05-27T00:10:26;98268.34;;;14.26;100.00
46722;BME280;32455;43.430;23.136;2023-05-27T00:13:11;98273.75;;;14.26;100.00
46722;BME280;32455;43.430;23.136;2023-05-27T00:15:57;98258.75;;;14.19;100.00
46722;BME280;32455;43.430;23.136;2023-05-27T00:18:42;98273.06;;;14.19;100.00
46722;BME280;32455;43.430;23.136;2023-05-27T00:21:27;98278.94;;;14.16;100.00
46722;BME280;32455;43.430;23.136;2023-05-27T00:24:13;98262.09;;;14.09;100.00
46722;BME280;32455;43.430;23.136;2023-05-27T00:26:58;98270.03;;;14.16;100.00
46722;BME280;32455;43.430;23.136;2023-05-27T00:29:43;98262.75;;;14.16;100.00
46722;BME280;32455;43.430;23.136;2023-05-27T00:32:28;98261.16;;;14.03;100.00
46722;BME280;32455;43.430;23.136;2023-05-27T00:35:14;98248.22;;;13.89;100.00
46722;BME280;32455;43.430;23.136;2023-05-27T00:37:59;98257.22;;;13.94;100.00
46722;BME280;32455;43.430;23.136;2023-05-27T00:40:45;98237.50;;;13.94;100.00
46722;BME280;32455;43.430;23.136;2023-05-27T00:43:32;98242.75;;;14.00;100.00
46722;BME280;32455;43.430;23.136;2023-05-27T00:46:18;98239.47;;;13.98;100.00
46722;BME280;32455;43.430;23.136;2023-05-27T00:49:03;98245.03;;;14.09;100.00
46722;BME280;32455;43.430;23.136;2023-05-27T00:51:49;98245.22;;;14.19;100.00
46722;BME280;32455;43.430;23.136;2023-05-27T00:54:35;98244.41;;;14.18;100.00
46722;BME280;32455;43.430;23.136;2023-05-27T00:57:20;98238.50;;;14.21;100.00
46722;BME280;32455;43.430;23.136;2023-05-27T01:00:06;98227.22;;;14.24;100.00
46722;BME280;32455;43.430;23.136;2023-05-27T01:02:55;98230.41;;;14.38;100.00
46722;BME280;32455;43.430;23.136;2023-05-27T01:05:41;98234.84;;;14.44;100.00
46722;BME280;32455;43.430;23.136;2023-05-27T01:08:37;98224.94;;;14.50;100.00
46722;BME280;32455;43.430;23.136;2023-05-27T01:11:31;98217.44;;;14.52;100.00
46722;BME280;32455;43.430;23.136;2023-05-27T01:14:21;98212.66;;;14.59;100.00
46722;BME280;32455;43.430;23.136;2023-05-27T01:17:08;98215.19;;;14.66;100.00
46722;BME280;32455;43.430;23.136;2023-05-27T01:19:54;98209.03;;;14.70;100.00
46722;BME280;32455;43.430;23.136;2023-05-27T01:22:42;98219.38;;;14.73;100.00
46722;BME280;32455;43.430;23.136;2023-05-27T01:25:27;98211.25;;;14.73;100.00
46722;BME280;32455;43.430;23.136;2023-05-27T01:28:13;98203.97;;;14.74;100.00
46722;BME280;32455;43.430;23.136;2023-05-27T01:31:31;98203.31;;;14.50;100.00
46722;BME280;32455;43.430;23.136;2023-05-27T01:34:27;98196.81;;;14.68;100.00
46722;BME280;32455;43.430;23.136;2023-05-27T01:37:16;98195.31;;;14.77;100.00
46722;BME280;32455;43.430;23.136;2023-05-27T01:40:05;98197.28;;;14.82;100.00
46722;BME280;32455;43.430;23.136;2023-05-27T01:42:52;98190.00;;;14.82;100.00
46722;BME280;32455;43.430;23.136;2023-05-27T01:45:38;98188.19;;;14.88;100.00
46722;BME280;32455;43.430;23.136;2023-05-27T01:48:23;98180.72;;;14.95;100.00
46722;BME280;32455;43.430;23.136;2023-05-27T01:51:08;98183.91;;;14.92;100.00
46722;BME280;32455;43.430;23.136;2023-05-27T01:53:53;98185.75;;;14.86;100.00
46722;BME280;32455;43.430;23.136;2023-05-27T01:56:38;98182.28;;;14.91;100.00
46722;BME280;32455;43.430;23.136;2023-05-27T01:59:23;98182.34;;;14.96;100.00
46722;BME280;32455;43.430;23.136;2023-05-27T02:02:09;98178.81;;;14.95;100.00
46722;BME280;32455;43.430;23.136;2023-05-27T02:04:54;98185.06;;;14.96;100.00
46722;BME280;32455;43.430;23.136;2023-05-27T02:07:40;98183.72;;;14.98;100.00
46722;BME280;32455;43.430;23.136;2023-05-27T02:10:25;98171.19;;;14.92;100.00
46722;BME280;32455;43.430;23.136;2023-05-27T02:13:10;98177.31;;;15.05;100.00
46722;BME280;32455;43.430;23.136;2023-05-27T02:15:56;98164.47;;;14.95;100.00
46722;BME280;32455;43.430;23.136;2023-05-27T02:18:41;98153.06;;;14.93;100.00
46722;BME280;32455;43.430;23.136;2023-05-27T02:21:26;98168.69;;;15.08;100.00
46722;BME280;32455;43.430;23.136;2023-05-27T02:24:12;98166.53;;;15.10;100.00
46722;BME280;32455;43.430;23.136;2023-05-27T02:26:58;98169.06;;;15.16;100.00
46722;BME280;32455;43.430;23.136;2023-05-27T02:29:43;98167.25;;;15.22;100.00
46722;BME280;32455;43.430;23.136;2023-05-27T02:32:28;98164.16;;;15.13;100.00
46722;BME280;32455;43.430;23.136;2023-05-27T02:35:16;98162.53;;;15.12;100.00
46722;BME280;32455;43.430;23.136;2023-05-27T02:38:01;98166.91;;;15.18;100.00
46722;BME280;32455;43.430;23.136;2023-05-27T02:40:46;98160.38;;;15.14;100.00
46722;BME280;32455;43.430;23.136;2023-05-27T02:43:32;98164.81;;;15.20;100.00
46722;BME280;32455;43.430;23.136;2023-05-27T02:46:18;98157.50;;;15.21;100.00
46722;BME280;32455;43.430;23.136;2023-05-27T02:49:03;98159.25;;;15.10;100.00
46722;BME280;32455;43.430;23.136;2023-05-27T02:51:49;98161.56;;;15.01;100.00
46722;BME280;32455;43.430;23.136;2023-05-27T02:54:34;98142.13;;;14.83;100.00
46722;BME280;32455;43.430;23.136;2023-05-27T02:57:20;98154.25;;;14.80;100.00
46722;BME280;32455;43.430;23.136;2023-05-27T03:00:06;98145.81;;;14.76;100.00
46722;BME280;32455;43.430;23.136;2023-05-27T03:02:53;98138.06;;;14.63;100.00
46722;BME280;32455;43.430;23.136;2023-05-27T03:05:38;98125.88;;;14.44;100.00
46722;BME280;32455;43.430;23.136;2023-05-27T03:08:24;98135.38;;;14.46;100.00
46722;BME280;32455;43.430;23.136;2023-05-27T03:11:09;98129.72;;;14.48;100.00
46722;BME280;32455;43.430;23.136;2023-05-27T03:13:54;98150.13;;;14.56;100.00
46722;BME280;32455;43.430;23.136;2023-05-27T03:16:40;98147.00;;;14.64;100.00
46722;BME280;32455;43.430;23.136;2023-05-27T03:19:25;98146.09;;;14.75;100.00
46722;BME280;32455;43.430;23.136;2023-05-27T03:22:10;98144.03;;;14.82;100.00
46722;BME280;32455;43.430;23.136;2023-05-27T03:24:55;98148.47;;;14.93;100.00
46722;BME280;32455;43.430;23.136;2023-05-27T03:27:41;98136.13;;;15.02;100.00
46722;BME280;32455;43.430;23.136;2023-05-27T03:30:25;98128.47;;;15.16;100.00
46722;BME280;32455;43.430;23.136;2023-05-27T03:33:11;98133.13;;;15.21;100.00
46722;BME280;32455;43.430;23.136;2023-05-27T03:35:56;98129.34;;;15.22;100.00
46722;BME280;32455;43.430;23.136;2023-05-27T03:38:41;98135.13;;;15.31;100.00
46722;BME280;32455;43.430;23.136;2023-05-27T03:41:26;98149.34;;;15.43;100.00
46722;BME280;32455;43.430;23.136;2023-05-27T03:44:12;98153.94;;;15.42;100.00
46722;BME280;32455;43.430;23.136;2023-05-27T03:46:57;98152.47;;;15.57;100.00
46722;BME280;32455;43.430;23.136;2023-05-27T03:49:43;98154.47;;;15.66;100.00
46722;BME280;32455;43.430;23.136;2023-05-27T03:52:28;98164.84;;;15.74;100.00
46722;BME280;32455;43.430;23.136;2023-05-27T03:55:13;98165.66;;;15.75;100.00
46722;BME280;32455;43.430;23.136;2023-05-27T03:57:58;98174.06;;;15.73;100.00
46722;BME280;32455;43.430;23.136;2023-05-27T04:00:43;98168.97;;;15.77;100.00
46722;BME280;32455;43.430;23.136;2023-05-27T04:03:29;98165.63;;;15.70;100.00
46722;BME280;32455;43.430;23.136;2023-05-27T04:06:14;98158.31;;;15.70;100.00
46722;BME280;32455;43.430;23.136;2023-05-27T04:09:00;98154.91;;;15.58;100.00
46722;BME280;32455;43.430;23.136;2023-05-27T04:11:45;98162.13;;;15.74;100.00
46722;BME280;32455;43.430;23.136;2023-05-27T04:14:31;98153.59;;;15.88;100.00
46722;BME280;32455;43.430;23.136;2023-05-27T04:17:16;98155.94;;;16.06;100.00
46722;BME280;32455;43.430;23.136;2023-05-27T04:20:02;98163.38;;;16.21;100.00
46722;BME280;32455;43.430;23.136;2023-05-27T04:22:58;98151.75;;;16.25;100.00
46722;BME280;32455;43.430;23.136;2023-05-27T04:25:43;98163.59;;;16.51;100.00
46722;BME280;32455;43.430;23.136;2023-05-27T04:28:28;98141.13;;;16.61;100.00
46722;BME280;32455;43.430;23.136;2023-05-27T04:31:13;98155.28;;;16.68;100.00
46722;BME280;32455;43.430;23.136;2023-05-27T04:34:00;98168.34;;;16.71;100.00
46722;BME280;32455;43.430;23.136;2023-05-27T04:36:45;98162.81;;;16.61;100.00
46722;BME280;32455;43.430;23.136;2023-05-27T04:39:34;98167.00;;;16.74;100.00
46722;BME280;32455;43.430;23.136;2023-05-27T04:42:19;98165.94;;;16.75;100.00
46722;BME280;32455;43.430;23.136;2023-05-27T04:45:06;98175.72;;;16.76;100.00
46722;BME280;32455;43.430;23.136;2023-05-27T04:47:53;98167.22;;;16.67;100.00
46722;BME280;32455;43.430;23.136;2023-05-27T04:50:38;98181.09;;;16.71;100.00
46722;BME280;32455;43.430;23.136;2023-05-27T04:53:24;98186.50;;;16.71;100.00
46722;BME280;32455;43.430;23.136;2023-05-27T04:56:10;98184.97;;;16.80;100.00
46722;BME280;32455;43.430;23.136;2023-05-27T04:58:55;98187.69;;;16.80;100.00
46722;BME280;32455;43.430;23.136;2023-05-27T05:01:41;98194.53;;;16.88;100.00
46722;BME280;32455;43.430;23.136;2023-05-27T05:04:45;98179.28;;;16.87;100.00
46722;BME280;32455;43.430;23.136;2023-05-27T05:07:31;98182.91;;;16.97;100.00
46722;BME280;32455;43.430;23.136;2023-05-27T05:10:16;98173.63;;;16.88;100.00
46722;BME280;32455;43.430;23.136;2023-05-27T05:13:01;98172.56;;;16.94;100.00
46722;BME280;32455;43.430;23.136;2023-05-27T05:15:47;98189.94;;;16.98;100.00
46722;BME280;32455;43.430;23.136;2023-05-27T05:18:36;98198.69;;;17.06;100.00
46722;BME280;32455;43.430;23.136;2023-05-27T05:21:21;98195.47;;;17.14;100.00
46722;BME280;32455;43.430;23.136;2023-05-27T05:24:06;98211.31;;;17.42;100.00
46722;BME280;32455;43.430;23.136;2023-05-27T05:26:52;98212.72;;;17.55;100.00
46722;BME280;32455;43.430;23.136;2023-05-27T05:29:37;98213.53;;;17.56;100.00
46722;BME280;32455;43.430;23.136;2023-05-27T05:32:22;98215.47;;;17.60;100.00
46722;BME280;32455;43.430;23.136;2023-05-27T05:35:08;98215.72;;;17.64;100.00
46722;BME280;32455;43.430;23.136;2023-05-27T05:37:53;98214.38;;;17.61;100.00
46722;BME280;32455;43.430;23.136;2023-05-27T05:40:38;98223.66;;;17.70;100.00
46722;BME280;32455;43.430;23.136;2023-05-27T05:43:23;98224.25;;;17.77;100.00
46722;BME280;32455;43.430;23.136;2023-05-27T05:46:09;98225.06;;;17.78;100.00
46722;BME280;32455;43.430;23.136;2023-05-27T05:48:54;98232.66;;;17.76;100.00
46722;BME280;32455;43.430;23.136;2023-05-27T05:51:39;98232.13;;;17.74;100.00
46722;BME280;32455;43.430;23.136;2023-05-27T05:54:25;98235.66;;;17.74;100.00
46722;BME280;32455;43.430;23.136;2023-05-27T05:57:10;98243.00;;;17.74;100.00
46722;BME280;32455;43.430;23.136;2023-05-27T05:59:55;98251.69;;;17.81;100.00
46722;BME280;32455;43.430;23.136;2023-05-27T06:02:41;98250.34;;;17.84;100.00
46722;BME280;32455;43.430;23.136;2023-05-27T06:05:27;98257.97;;;17.87;100.00
46722;BME280;32455;43.430;23.136;2023-05-27T06:08:12;98255.84;;;18.04;100.00
46722;BME280;32455;43.430;23.136;2023-05-27T06:10:58;98249.59;;;18.04;100.00
46722;BME280;32455;43.430;23.136;2023-05-27T06:13:43;98249.31;;;18.05;100.00
46722;BME280;32455;43.430;23.136;2023-05-27T06:16:28;98251.50;;;18.13;100.00
46722;BME280;32455;43.430;23.136;2023-05-27T06:19:14;98248.78;;;18.18;100.00
46722;BME280;32455;43.430;23.136;2023-05-27T06:21:59;98256.97;;;18.29;100.00
46722;BME280;32455;43.430;23.136;2023-05-27T06:24:44;98250.16;;;18.41;100.00
46722;BME280;32455;43.430;23.136;2023-05-27T06:27:30;98255.06;;;18.29;100.00
46722;BME280;32455;43.430;23.136;2023-05-27T06:30:15;98249.09;;;18.42;100.00
46722;BME280;32455;43.430;23.136;2023-05-27T06:33:00;98257.25;;;18.58;100.00
46722;BME280;32455;43.430;23.136;2023-05-27T06:35:45;98258.91;;;18.74;100.00
46722;BME280;32455;43.430;23.136;2023-05-27T06:38:31;98257.00;;;18.90;100.00
46722;BME280;32455;43.430;23.136;2023-05-27T06:41:17;98260.22;;;18.97;100.00
46722;BME280;32455;43.430;23.136;2023-05-27T06:44:03;98261.31;;;18.96;100.00
46722;BME280;32455;43.430;23.136;2023-05-27T06:46:48;98262.66;;;19.14;100.00
46722;BME280;32455;43.430;23.136;2023-05-27T06:49:33;98261.03;;;19.13;100.00
46722;BME280;32455;43.430;23.136;2023-05-27T06:52:19;98251.22;;;19.12;100.00
46722;BME280;32455;43.430;23.136;2023-05-27T06:55:04;98262.34;;;19.25;100.00
46722;BME280;32455;43.430;23.136;2023-05-27T06:57:49;98251.44;;;19.25;100.00
46722;BME280;32455;43.430;23.136;2023-05-27T07:00:34;98267.78;;;19.41;100.00
46722;BME280;32455;43.430;23.136;2023-05-27T07:03:20;98257.66;;;19.46;100.00
46722;BME280;32455;43.430;23.136;2023-05-27T07:06:05;98266.66;;;19.47;100.00
46722;BME280;32455;43.430;23.136;2023-05-27T07:08:50;98252.50;;;19.45;100.00
46722;BME280;32455;43.430;23.136;2023-05-27T07:11:36;98249.47;;;19.46;100.00
46722;BME280;32455;43.430;23.136;2023-05-27T07:14:21;98262.00;;;19.63;100.00
46722;BME280;32455;43.430;23.136;2023-05-27T07:17:07;98251.09;;;19.63;100.00
46722;BME280;32455;43.430;23.136;2023-05-27T07:19:52;98258.34;;;19.83;100.00
46722;BME280;32455;43.430;23.136;2023-05-27T07:22:37;98258.59;;;19.91;100.00
46722;BME280;32455;43.430;23.136;2023-05-27T07:25:23;98248.50;;;19.92;100.00
46722;BME280;32455;43.430;23.136;2023-05-27T07:28:08;98242.97;;;20.02;100.00
46722;BME280;32455;43.430;23.136;2023-05-27T07:30:53;98245.59;;;20.17;100.00
46722;BME280;32455;43.430;23.136;2023-05-27T07:33:39;98243.59;;;20.28;100.00
46722;BME280;32455;43.430;23.136;2023-05-27T07:36:25;98246.53;;;20.37;100.00
46722;BME280;32455;43.430;23.136;2023-05-27T07:39:10;98239.66;;;20.49;100.00
46722;BME280;32455;43.430;23.136;2023-05-27T07:41:56;98244.59;;;20.42;100.00
46722;BME280;32455;43.430;23.136;2023-05-27T07:44:42;98255.75;;;20.46;100.00
46722;BME280;32455;43.430;23.136;2023-05-27T07:47:27;98248.41;;;20.41;100.00
46722;BME280;32455;43.430;23.136;2023-05-27T07:50:12;98247.09;;;20.34;100.00
46722;BME280;32455;43.430;23.136;2023-05-27T07:52:57;98251.50;;;20.35;100.00
46722;BME280;32455;43.430;23.136;2023-05-27T07:55:43;98249.66;;;20.59;100.00
46722;BME280;32455;43.430;23.136;2023-05-27T07:58:28;98233.78;;;20.66;100.00
46722;BME280;32455;43.430;23.136;2023-05-27T08:01:13;98253.34;;;20.79;100.00
46722;BME280;32455;43.430;23.136;2023-05-27T08:03:59;98247.28;;;20.53;100.00
46722;BME280;32455;43.430;23.136;2023-05-27T08:06:44;98255.97;;;20.55;100.00
46722;BME280;32455;43.430;23.136;2023-05-27T08:09:30;98259.09;;;20.77;100.00
46722;BME280;32455;43.430;23.136;2023-05-27T08:12:17;98257.63;;;20.85;100.00
46722;BME280;32455;43.430;23.136;2023-05-27T08:15:03;98255.06;;;20.98;100.00
46722;BME280;32455;43.430;23.136;2023-05-27T08:17:48;98254.78;;;21.00;100.00
46722;BME280;32455;43.430;23.136;2023-05-27T08:20:34;98250.63;;;21.02;100.00
46722;BME280;32455;43.430;23.136;2023-05-27T08:23:19;98258.00;;;21.02;97.57
46722;BME280;32455;43.430;23.136;2023-05-27T08:26:04;98252.66;;;20.92;100.00
46722;BME280;32455;43.430;23.136;2023-05-27T08:28:50;98246.50;;;21.05;100.00
46722;BME280;32455;43.430;23.136;2023-05-27T08:31:35;98259.88;;;21.36;100.00
46722;BME280;32455;43.430;23.136;2023-05-27T08:34:20;98255.75;;;21.38;95.23
46722;BME280;32455;43.430;23.136;2023-05-27T08:37:05;98247.63;;;21.33;98.81
46722;BME280;32455;43.430;23.136;2023-05-27T08:39:50;98255.00;;;21.27;98.00
46722;BME280;32455;43.430;23.136;2023-05-27T08:42:36;98246.81;;;21.27;96.22
46722;BME280;32455;43.430;23.136;2023-05-27T08:45:21;98249.41;;;21.43;98.34
46722;BME280;32455;43.430;23.136;2023-05-27T08:48:10;98246.44;;;21.63;99.69
46722;BME280;32455;43.430;23.136;2023-05-27T08:50:57;98246.88;;;21.70;97.72
46722;BME280;32455;43.430;23.136;2023-05-27T08:53:44;98247.25;;;21.64;95.87
46722;BME280;32455;43.430;23.136;2023-05-27T08:56:32;98246.31;;;21.73;98.91
46722;BME280;32455;43.430;23.136;2023-05-27T08:59:19;98241.88;;;21.54;92.91
46722;BME280;32455;43.430;23.136;2023-05-27T09:02:11;98248.88;;;21.84;99.03
46722;BME280;32455;43.430;23.136;2023-05-27T09:04:57;98234.28;;;21.93;100.00
46722;BME280;32455;43.430;23.136;2023-05-27T09:07:43;98236.88;;;21.85;95.87
46722;BME280;32455;43.430;23.136;2023-05-27T09:10:39;98243.06;;;21.90;96.28
46722;BME280;32455;43.430;23.136;2023-05-27T09:13:30;98243.44;;;22.03;91.91
46722;BME280;32455;43.430;23.136;2023-05-27T09:16:19;98229.63;;;21.94;94.40
46722;BME280;32455;43.430;23.136;2023-05-27T09:19:17;98231.06;;;22.05;95.34
46722;BME280;32455;43.430;23.136;2023-05-27T09:22:03;98235.50;;;22.01;92.71
46722;BME280;32455;43.430;23.136;2023-05-27T09:24:51;98244.72;;;22.10;91.58
46722;BME280;32455;43.430;23.136;2023-05-27T09:27:37;98235.38;;;22.11;95.41
46722;BME280;32455;43.430;23.136;2023-05-27T09:30:23;98233.75;;;22.10;94.20
46722;BME280;32455;43.430;23.136;2023-05-27T09:33:09;98222.06;;;22.05;97.42
46722;BME280;32455;43.430;23.136;2023-05-27T09:35:54;98224.44;;;22.11;94.12
46722;BME280;32455;43.430;23.136;2023-05-27T09:38:40;98219.44;;;22.18;97.60
46722;BME280;32455;43.430;23.136;2023-05-27T09:41:26;98222.88;;;22.05;98.12
46722;BME280;32455;43.430;23.136;2023-05-27T09:44:12;98211.56;;;22.31;95.90
46722;BME280;32455;43.430;23.136;2023-05-27T09:46:58;98221.47;;;22.27;91.96
46722;BME280;32455;43.430;23.136;2023-05-27T09:49:46;98210.03;;;22.06;88.67
46722;BME280;32455;43.430;23.136;2023-05-27T09:52:36;98210.22;;;22.09;92.55
46722;BME280;32455;43.430;23.136;2023-05-27T09:55:22;98213.94;;;22.37;92.33
46722;BME280;32455;43.430;23.136;2023-05-27T09:58:08;98207.22;;;22.62;93.10
46722;BME280;32455;43.430;23.136;2023-05-27T10:00:55;98203.28;;;22.68;96.98
46722;BME280;32455;43.430;23.136;2023-05-27T10:03:42;98201.72;;;22.95;96.18
46722;BME280;32455;43.430;23.136;2023-05-27T10:06:29;98209.88;;;23.00;92.90
46722;BME280;32455;43.430;23.136;2023-05-27T10:09:16;98200.91;;;23.08;94.12
46722;BME280;32455;43.430;23.136;2023-05-27T10:12:03;98203.88;;;23.12;97.16
46722;BME280;32455;43.430;23.136;2023-05-27T10:14:49;98199.63;;;23.19;95.87
46722;BME280;32455;43.430;23.136;2023-05-27T10:21:19;98203.47;;;23.32;90.51
46722;BME280;32455;43.430;23.136;2023-05-27T10:24:10;98196.38;;;23.17;94.30
46722;BME280;32455;43.430;23.136;2023-05-27T10:27:00;98197.56;;;23.25;92.66
46722;BME280;32455;43.430;23.136;2023-05-27T10:29:57;98197.06;;;23.37;92.71
46722;BME280;32455;43.430;23.136;2023-05-27T10:32:48;98193.72;;;23.40;90.97
46722;BME280;32455;43.430;23.136;2023-05-27T10:35:41;98187.81;;;23.33;89.50
46722;BME280;32455;43.430;23.136;2023-05-27T10:38:27;98193.91;;;23.30;88.93
46722;BME280;32455;43.430;23.136;2023-05-27T10:41:13;98187.13;;;23.13;93.13
46722;BME280;32455;43.430;23.136;2023-05-27T10:43:59;98181.81;;;23.58;88.97
46722;BME280;32455;43.430;23.136;2023-05-27T10:46:45;98175.38;;;23.90;92.66
46722;BME280;32455;43.430;23.136;2023-05-27T10:49:35;98174.97;;;23.83;84.66
46722;BME280;32455;43.430;23.136;2023-05-27T10:52:23;98175.13;;;23.37;69.41
46722;BME280;32455;43.430;23.136;2023-05-27T10:55:10;98168.44;;;23.43;71.59
46722;BME280;32455;43.430;23.136;2023-05-27T10:57:57;98171.22;;;23.79;70.11
46722;BME280;32455;43.430;23.136;2023-05-27T11:00:44;98164.63;;;23.80;68.18
46722;BME280;32455;43.430;23.136;2023-05-27T11:03:31;98154.38;;;23.72;67.02
46722;BME280;32455;43.430;23.136;2023-05-27T11:06:17;98154.03;;;23.87;65.99
46722;BME280;32455;43.430;23.136;2023-05-27T11:09:02;98156.59;;;24.06;65.51
46722;BME280;32455;43.430;23.136;2023-05-27T11:11:48;98152.00;;;24.15;64.64
46722;BME280;32455;43.430;23.136;2023-05-27T11:14:34;98147.06;;;24.04;63.96
46722;BME280;32455;43.430;23.136;2023-05-27T11:17:19;98142.38;;;23.68;66.74
46722;BME280;32455;43.430;23.136;2023-05-27T11:20:05;98148.41;;;23.42;65.55
46722;BME280;32455;43.430;23.136;2023-05-27T11:22:52;98136.63;;;23.42;63.95
46722;BME280;32455;43.430;23.136;2023-05-27T11:25:43;98133.44;;;23.62;66.81
46722;BME280;32455;43.430;23.136;2023-05-27T11:28:28;98135.03;;;23.91;65.67
46722;BME280;32455;43.430;23.136;2023-05-27T11:31:14;98132.28;;;23.91;59.76
46722;BME280;32455;43.430;23.136;2023-05-27T11:33:59;98133.75;;;23.97;58.12
46722;BME280;32455;43.430;23.136;2023-05-27T11:36:45;98122.00;;;23.46;60.82
46722;BME280;32455;43.430;23.136;2023-05-27T11:39:31;98130.03;;;24.15;63.30
46722;BME280;32455;43.430;23.136;2023-05-27T11:42:29;98126.28;;;23.89;62.69
46722;BME280;32455;43.430;23.136;2023-05-27T11:45:19;98119.97;;;23.88;61.87
46722;BME280;32455;43.430;23.136;2023-05-27T11:48:08;98122.66;;;23.80;61.03
46722;BME280;32455;43.430;23.136;2023-05-27T11:50:54;98118.16;;;24.51;58.32
46722;BME280;32455;43.430;23.136;2023-05-27T11:53:43;98121.88;;;24.24;60.41
46722;BME280;32455;43.430;23.136;2023-05-27T11:56:29;98119.88;;;24.38;59.80
46722;BME280;32455;43.430;23.136;2023-05-27T11:59:15;98114.09;;;24.48;62.75
46722;BME280;32455;43.430;23.136;2023-05-27T12:02:01;98114.75;;;24.45;58.86
46722;BME280;32455;43.430;23.136;2023-05-27T12:04:46;98109.53;;;24.75;59.66
46722;BME280;32455;43.430;23.136;2023-05-27T12:07:32;98114.91;;;24.80;58.24
46722;BME280;32455;43.430;23.136;2023-05-27T12:10:17;98103.13;;;24.48;57.81
46722;BME280;32455;43.430;23.136;2023-05-27T12:13:03;98105.06;;;24.48;55.55
46722;BME280;32455;43.430;23.136;2023-05-27T12:15:49;98104.38;;;24.73;57.60
46722;BME280;32455;43.430;23.136;2023-05-27T12:18:35;98104.78;;;24.98;57.25
46722;BME280;32455;43.430;23.136;2023-05-27T12:21:21;98100.81;;;25.13;57.01
46722;BME280;32455;43.430;23.136;2023-05-27T12:24:06;98089.81;;;24.73;59.70
46722;BME280;32455;43.430;23.136;2023-05-27T12:26:52;98084.06;;;24.92;57.13
46722;BME280;32455;43.430;23.136;2023-05-27T12:29:37;98085.78;;;25.10;57.95
46722;BME280;32455;43.430;23.136;2023-05-27T12:32:22;98071.63;;;24.94;57.48
46722;BME280;32455;43.430;23.136;2023-05-27T12:35:08;98071.22;;;25.10;56.15
46722;BME280;32455;43.430;23.136;2023-05-27T12:37:53;98067.97;;;25.16;56.67
46722;BME280;32455;43.430;23.136;2023-05-27T12:40:38;98061.91;;;24.88;56.53
46722;BME280;32455;43.430;23.136;2023-05-27T12:43:24;98066.13;;;24.46;57.15
46722;BME280;32455;43.430;23.136;2023-05-27T12:46:10;98057.41;;;24.21;58.47
46722;BME280;32455;43.430;23.136;2023-05-27T12:48:55;98051.19;;;23.85;60.51
46722;BME280;32455;43.430;23.136;2023-05-27T12:51:41;98043.75;;;23.85;62.23
46722;BME280;32455;43.430;23.136;2023-05-27T12:54:27;98044.03;;;24.29;57.19
46722;BME280;32455;43.430;23.136;2023-05-27T12:57:12;98048.69;;;24.51;57.82
46722;BME280;32455;43.430;23.136;2023-05-27T12:59:57;98047.22;;;24.53;56.95
46722;BME280;32455;43.430;23.136;2023-05-27T13:02:44;98042.31;;;24.72;57.29
46722;BME280;32455;43.430;23.136;2023-05-27T13:05:29;98029.72;;;24.80;59.79
46722;BME280;32455;43.430;23.136;2023-05-27T13:08:15;98037.22;;;24.57;58.01
46722;BME280;32455;43.430;23.136;2023-05-27T13:11:00;98030.22;;;24.91;58.40
46722;BME280;32455;43.430;23.136;2023-05-27T13:13:45;98030.28;;;25.17;56.33
46722;BME280;32455;43.430;23.136;2023-05-27T13:16:31;98020.38;;;24.98;57.88
46722;BME280;32455;43.430;23.136;2023-05-27T13:19:16;98028.03;;;25.10;56.07
46722;BME280;32455;43.430;23.136;2023-05-27T13:22:01;98022.63;;;25.05;57.93
46722;BME280;32455;43.430;23.136;2023-05-27T13:24:48;98011.34;;;25.07;56.89
46722;BME280;32455;43.430;23.136;2023-05-27T13:27:34;98017.53;;;25.38;55.87
46722;BME280;32455;43.430;23.136;2023-05-27T13:30:19;97994.53;;;25.52;55.34
46722;BME280;32455;43.430;23.136;2023-05-27T13:33:05;98000.22;;;25.46;57.41
46722;BME280;32455;43.430;23.136;2023-05-27T13:35:50;98008.47;;;25.12;57.35
46722;BME280;32455;43.430;23.136;2023-05-27T13:38:35;98002.84;;;24.68;57.80
46722;BME280;32455;43.430;23.136;2023-05-27T13:41:20;98012.44;;;24.80;56.53
46722;BME280;32455;43.430;23.136;2023-05-27T13:44:06;98008.22;;;24.91;55.54
46722;BME280;32455;43.430;23.136;2023-05-27T13:46:51;98006.81;;;25.02;55.42
46722;BME280;32455;43.430;23.136;2023-05-27T13:49:36;98006.22;;;25.14;56.94
46722;BME280;32455;43.430;23.136;2023-05-27T13:52:21;98001.66;;;25.27;54.30
46722;BME280;32455;43.430;23.136;2023-05-27T13:55:07;98008.63;;;25.41;55.13
46722;BME280;32455;43.430;23.136;2023-05-27T13:57:52;98002.50;;;25.53;52.51
46722;BME280;32455;43.430;23.136;2023-05-27T14:00:37;97993.56;;;25.56;53.17
46722;BME280;32455;43.430;23.136;2023-05-27T14:03:22;98002.81;;;25.34;51.58
46722;BME280;32455;43.430;23.136;2023-05-27T14:06:08;97999.50;;;24.80;53.42
46722;BME280;32455;43.430;23.136;2023-05-27T14:08:53;98004.41;;;24.52;51.45
46722;BME280;32455;43.430;23.136;2023-05-27T14:11:40;98000.06;;;24.60;50.56
46722;BME280;32455;43.430;23.136;2023-05-27T14:14:25;97998.75;;;24.57;52.66
46722;BME280;32455;43.430;23.136;2023-05-27T14:17:11;97999.53;;;24.49;53.43
46722;BME280;32455;43.430;23.136;2023-05-27T14:19:56;97995.47;;;24.38;56.34
46722;BME280;32455;43.430;23.136;2023-05-27T14:22:41;97998.97;;;24.30;57.50
46722;BME280;32455;43.430;23.136;2023-05-27T14:25:27;97997.78;;;24.22;59.38